PABE/BET METAR and TAF weather

Enter ICAO airport designator
Station Type Date Time Source
PABE METAR 2021/05/15 00:53 UTC NOAA

PABE 150053Z 14009KT 10SM BKN060 13/01 A2974 RMK AO2 SLP070 T01330011


Station Type Date Time Source
PABE Decoded METAR 2021/05/15 00:53 UTC NOAA

BETHEL AIRPORT, AK, United States (PABE) 60-47N 161-50W 46M
May 14, 2021 - 08:53 PM EDT / 2021.05.15 0053 UTC
Wind: from the SE (140 degrees) at 10 MPH (9 KT):0
Visibility: 10 mile(s):0
Sky conditions: mostly cloudy
Temperature: 55.9 F (13.3 C)
Dew Point: 34.0 F (1.1 C)
Relative Humidity: 43%
Pressure (altimeter): 29.74 in. Hg (1007 hPa)
ob: PABE 150053Z 14009KT 10SM BKN060 13/01 A2974 RMK AO2 SLP070 T01330011
cycle: 1

Station Type Date Time Source
PABE TAF 2021/05/14 18:30 UTC NOAA

TAF PABE 141728Z 1418/1518 11009KT P6SM BKN100
FM142100 11012G20KT P6SM BKN060
FM150500 15010KT P6SM SCT040 OVC060

Example: see airport list